Time;durP1;ratioP1;P1;durP2;ratioP2;P2;SDS_P1;SDS_P2;PMS_P1;PMS_P2;Temp;Humidity;BMP_temperature;BMP_pressure;BME280_temperature;BME280_humidity;BME280_pressure;Samples;Min_cycle;Max_cycle;Signal;HPM_P1;HPM_P2
2022/01/09 00:02:06;;;;;;;12.63;7.90;;;;;;;4.60;100.00;98766.41;4965103;28;20030;-44
2022/01/09 00:04:32;;;;;;;14.93;7.30;;;;;;;4.62;100.00;98779.47;4963506;28;20511;-45
2022/01/09 00:06:57;;;;;;;11.82;7.85;;;;;;;4.62;100.00;98784.75;4963767;28;20066;-46
2022/01/09 00:09:22;;;;;;;15.02;8.00;;;;;;;4.60;100.00;98792.84;4963886;28;20034;-44
2022/01/09 00:11:47;;;;;;;15.57;8.55;;;;;;;4.62;100.00;98796.13;4963077;28;20041;-44
2022/01/09 00:14:13;;;;;;;14.32;9.00;;;;;;;4.65;100.00;98808.19;4963367;28;20033;-46
2022/01/09 00:16:38;;;;;;;14.70;9.00;;;;;;;4.67;100.00;98827.34;4965738;28;20034;-45
2022/01/09 00:19:03;;;;;;;12.32;7.35;;;;;;;4.74;100.00;98824.84;4968166;28;20026;-45
2022/01/09 00:21:28;;;;;;;17.27;8.23;;;;;;;4.75;100.00;98848.47;4947021;28;20046;-45
2022/01/09 00:23:54;;;;;;;13.43;7.30;;;;;;;4.78;100.00;98850.75;4963595;28;20054;-47
2022/01/09 00:26:19;;;;;;;12.38;6.25;;;;;;;4.78;100.00;98857.88;4963089;28;20034;-46
2022/01/09 00:28:44;;;;;;;14.07;5.40;;;;;;;4.75;100.00;98848.47;4944767;28;20478;-43
2022/01/09 00:31:09;;;;;;;21.45;5.82;;;;;;;4.74;100.00;98877.72;4946449;28;20165;-47
2022/01/09 00:33:35;;;;;;;28.05;5.68;;;;;;;4.74;100.00;98889.13;4963474;28;20022;-42
2022/01/09 00:36:00;;;;;;;12.45;3.17;;;;;;;4.76;100.00;98889.78;4964321;28;20040;-43
2022/01/09 00:38:25;;;;;;;28.50;4.60;;;;;;;4.68;100.00;98897.72;4963533;28;20031;-44
2022/01/09 00:40:51;;;;;;;35.08;5.10;;;;;;;4.70;100.00;98895.78;4962286;28;20039;-45
2022/01/09 00:43:16;;;;;;;36.38;4.72;;;;;;;4.63;100.00;98898.28;4962148;28;20069;-45
2022/01/09 00:45:42;;;;;;;54.28;6.03;;;;;;;4.63;100.00;98908.84;4962948;28;20034;-43
2022/01/09 00:48:08;;;;;;;56.47;6.85;;;;;;;4.61;100.00;98936.44;4963160;28;20351;-44
2022/01/09 00:50:36;;;;;;;59.42;6.68;;;;;;;4.60;100.00;98918.91;4962956;28;20077;-43
2022/01/09 00:53:03;;;;;;;55.35;6.40;;;;;;;4.53;100.00;98936.44;4963946;28;20023;-43
2022/01/09 00:55:28;;;;;;;70.85;6.75;;;;;;;4.52;100.00;98934.81;4962481;28;20397;-43
2022/01/09 00:57:54;;;;;;;65.13;6.22;;;;;;;4.51;100.00;98933.97;4962733;28;20121;-43
2022/01/09 01:00:19;;;;;;;56.20;5.50;;;;;;;4.56;100.00;98955.44;4974495;28;20420;-46
2022/01/09 01:02:44;;;;;;;74.13;6.20;;;;;;;4.55;100.00;98955.59;4972084;28;20084;-44
2022/01/09 01:05:10;;;;;;;61.78;5.68;;;;;;;4.52;100.00;98962.06;4971700;28;20023;-45
2022/01/09 01:07:35;;;;;;;39.75;4.20;;;;;;;4.51;100.00;98962.22;4979007;28;20038;-42
2022/01/09 01:10:02;;;;;;;52.17;5.03;;;;;;;4.39;100.00;98967.84;4981874;28;20650;-43
2022/01/09 01:12:30;;;;;;;40.78;4.93;;;;;;;4.35;100.00;98982.41;4982671;28;20038;-43
2022/01/09 01:14:56;;;;;;;35.05;4.30;;;;;;;4.33;100.00;98975.63;4981281;28;20022;-44
2022/01/09 01:17:22;;;;;;;40.40;4.15;;;;;;;4.26;100.00;98984.25;4982281;28;20076;-43
2022/01/09 01:19:48;;;;;;;54.92;5.97;;;;;;;4.26;100.00;98988.69;4981620;28;20057;-42
2022/01/09 01:22:14;;;;;;;71.20;5.82;;;;;;;4.26;100.00;98993.97;4982143;28;20064;-43
2022/01/09 01:24:41;;;;;;;85.47;6.38;;;;;;;4.38;100.00;98999.75;4980935;28;20551;-43
2022/01/09 01:27:07;;;;;;;71.30;6.85;;;;;;;4.39;100.00;99010.16;4962200;28;20031;-43
2022/01/09 01:29:33;;;;;;;62.38;5.97;;;;;;;4.42;100.00;99025.69;4980764;28;20029;-41
2022/01/09 01:31:59;;;;;;;65.50;5.25;;;;;;;4.46;100.00;99027.00;4979192;28;20373;-41
2022/01/09 01:34:24;;;;;;;92.35;7.25;;;;;;;4.47;100.00;99026.00;4981589;28;20037;-47
2022/01/09 01:36:49;;;;;;;69.38;6.72;;;;;;;4.50;100.00;99032.78;4970205;28;20034;-42
2022/01/09 01:39:15;;;;;;;72.70;7.18;;;;;;;4.57;100.00;99038.25;4981178;28;20018;-45
2022/01/09 01:41:40;;;;;;;76.80;6.72;;;;;;;4.57;100.00;99038.25;4980253;28;20153;-45
2022/01/09 01:44:10;;;;;;;64.05;6.10;;;;;;;4.57;100.00;99040.88;4980023;28;20018;-41
2022/01/09 01:46:37;;;;;;;71.53;6.30;;;;;;;4.61;100.00;99047.47;4980880;28;20052;-45
2022/01/09 01:49:03;;;;;;;90.90;6.70;;;;;;;4.61;100.00;99060.69;4981654;28;20502;-43
2022/01/09 01:51:28;;;;;;;73.15;7.20;;;;;;;4.61;100.00;99060.69;4981566;28;20492;-42
2022/01/09 01:53:55;;;;;;;58.63;6.10;;;;;;;4.63;100.00;99071.94;4966519;28;20022;-44
2022/01/09 01:56:22;;;;;;;76.15;6.90;;;;;;;4.61;100.00;99077.38;4961525;28;20029;-44
2022/01/09 01:58:49;;;;;;;51.15;6.00;;;;;;;4.60;100.00;99081.03;4961186;28;20490;-43
2022/01/09 02:01:14;;;;;;;62.33;6.32;;;;;;;4.54;100.00;99079.03;4961281;28;20043;-45
2022/01/09 02:03:39;;;;;;;83.93;6.60;;;;;;;4.59;100.00;99097.06;4962076;28;20065;-44
2022/01/09 02:06:05;;;;;;;85.82;7.38;;;;;;;4.58;100.00;99088.31;4962386;28;20023;-42
2022/01/09 02:08:31;;;;;;;76.20;7.35;;;;;;;4.53;100.00;99103.00;4962469;28;20454;-44
2022/01/09 02:10:57;;;;;;;84.07;7.90;;;;;;;4.56;100.00;99119.34;4960931;28;20034;-44
2022/01/09 02:13:22;;;;;;;82.35;7.13;;;;;;;4.56;100.00;99129.91;4961455;28;20060;-45
2022/01/09 02:15:48;;;;;;;70.47;6.68;;;;;;;4.55;100.00;99117.72;4944172;28;20023;-43
2022/01/09 02:18:18;;;;;;;71.05;6.13;;;;;;;4.62;100.00;99126.63;4961638;28;20477;-43
2022/01/09 02:20:45;;;;;;;49.58;5.50;;;;;;;4.62;100.00;99141.69;4961363;28;20058;-43
2022/01/09 02:23:13;;;;;;;75.13;7.25;;;;;;;4.69;100.00;99147.13;4961625;28;20047;-42
2022/01/09 02:25:40;;;;;;;68.80;6.57;;;;;;;4.67;100.00;99156.06;4960667;28;20105;-42
2022/01/09 02:28:06;;;;;;;72.20;6.88;;;;;;;4.70;100.00;99157.56;4972903;28;20484;-44
2022/01/09 02:30:32;;;;;;;61.38;6.65;;;;;;;4.64;100.00;99160.84;4981144;28;20485;-43
2022/01/09 02:33:02;;;;;;;75.80;7.47;;;;;;;4.66;100.00;99170.25;4981654;28;20025;-48
2022/01/09 02:35:28;;;;;;;63.80;7.20;;;;;;;4.67;100.00;99174.56;4980827;28;20030;-45
2022/01/09 02:37:53;;;;;;;66.75;7.07;;;;;;;4.61;100.00;99191.06;4980712;28;20014;-46
2022/01/09 02:40:19;;;;;;;62.05;6.22;;;;;;;4.69;100.00;99178.88;4980639;28;21197;-45
2022/01/09 02:42:44;;;;;;;45.72;5.53;;;;;;;4.65;100.00;99176.53;4971880;28;20101;-45
2022/01/09 02:45:10;;;;;;;75.85;6.97;;;;;;;4.66;100.00;99185.28;4973117;28;20037;-46
2022/01/09 02:47:37;;;;;;;63.13;6.32;;;;;;;4.62;100.00;99186.63;4980689;28;20037;-47
2022/01/09 02:50:16;;;;;;;75.97;7.50;;;;;;;4.59;100.00;99201.00;4978902;28;20030;-47
2022/01/09 02:52:53;;;;;;;59.50;6.47;;;;;;;4.63;100.00;99220.00;4980842;28;20133;-47
2022/01/09 02:55:21;;;;;;;77.75;6.63;;;;;;;4.69;100.00;99207.97;4977671;28;20027;-44
2022/01/09 02:57:50;;;;;;;62.60;5.70;;;;;;;4.69;100.00;99224.63;4972468;28;20478;-45
2022/01/09 03:00:20;;;;;;;50.40;6.57;;;;;;;4.71;100.00;99235.06;4971192;28;21148;-43
2022/01/09 03:02:45;;;;;;;57.60;5.93;;;;;;;4.76;100.00;99233.56;4979946;28;20018;-42
2022/01/09 03:05:12;;;;;;;46.42;4.18;;;;;;;4.81;100.00;99231.25;4971322;28;20105;-46
2022/01/09 03:07:38;;;;;;;61.95;5.43;;;;;;;4.81;100.00;99244.47;4980633;28;20030;-46
2022/01/09 03:10:05;;;;;;;50.13;6.18;;;;;;;4.84;100.00;99252.09;4980138;28;20436;-42
2022/01/09 03:12:30;;;;;;;47.22;5.45;;;;;;;4.82;100.00;99243.50;4963871;28;20036;-44
2022/01/09 03:14:55;;;;;;;75.95;6.85;;;;;;;4.84;100.00;99259.22;4979869;28;20026;-44
2022/01/09 03:17:21;;;;;;;64.43;5.90;;;;;;;4.81;100.00;99268.28;4963020;28;20030;-43
2022/01/09 03:19:46;;;;;;;48.55;5.00;;;;;;;4.80;100.00;99271.09;4961400;28;20027;-44
2022/01/09 03:22:11;;;;;;;58.38;5.03;;;;;;;4.78;100.00;99281.84;4961046;28;20452;-43
2022/01/09 03:24:37;;;;;;;41.55;4.82;;;;;;;4.80;100.00;99292.25;4960799;28;20043;-46
2022/01/09 03:27:02;;;;;;;58.90;5.80;;;;;;;4.84;100.00;99290.97;4961090;28;20035;-43
2022/01/09 03:29:31;;;;;;;44.85;5.97;;;;;;;4.88;100.00;99291.47;4960820;28;20410;-47
2022/01/09 03:31:56;;;;;;;55.25;5.55;;;;;;;4.83;100.00;99291.94;4960721;28;20023;-45
2022/01/09 03:34:21;;;;;;;44.58;4.80;;;;;;;4.85;100.00;99325.19;4964612;28;20504;-44
2022/01/09 03:36:47;;;;;;;47.17;5.07;;;;;;;4.78;100.00;99304.81;4946554;28;20122;-45
2022/01/09 03:39:12;;;;;;;44.72;4.90;;;;;;;4.75;100.00;99321.00;4964713;28;20049;-45
2022/01/09 03:41:37;;;;;;;45.42;4.40;;;;;;;4.67;100.00;99332.41;4963424;28;20462;-43
2022/01/09 03:44:03;;;;;;;37.85;4.25;;;;;;;4.63;100.00;99331.91;4963907;28;20381;-45
2022/01/09 03:46:28;;;;;;;41.40;4.57;;;;;;;4.62;100.00;99322.28;4964707;28;20057;-45
2022/01/09 03:48:54;;;;;;;32.90;4.78;;;;;;;4.60;100.00;99350.72;4964775;28;20446;-44
2022/01/09 03:51:21;;;;;;;53.28;4.60;;;;;;;4.65;100.00;99347.56;4964961;28;20076;-43
2022/01/09 03:53:46;;;;;;;42.13;5.28;;;;;;;4.64;100.00;99338.00;4964235;28;20031;-43
2022/01/09 03:56:12;;;;;;;39.38;3.95;;;;;;;4.65;100.00;99374.03;4963550;28;20049;-43
2022/01/09 03:58:37;;;;;;;31.92;4.18;;;;;;;4.65;100.00;99366.94;4963545;28;20023;-44
2022/01/09 04:01:06;;;;;;;38.90;3.53;;;;;;;4.66;100.00;99362.47;4964387;28;20035;-43
2022/01/09 04:03:32;;;;;;;35.45;3.90;;;;;;;4.64;100.00;99382.97;4965027;28;20027;-43
2022/01/09 04:06:00;;;;;;;41.00;4.20;;;;;;;4.62;100.00;99390.22;4964071;28;20105;-44
2022/01/09 04:08:26;;;;;;;37.20;4.35;;;;;;;4.59;100.00;99395.81;4964212;28;20118;-44
2022/01/09 04:10:51;;;;;;;29.08;3.53;;;;;;;4.63;100.00;99390.06;4963242;28;20105;-44
2022/01/09 04:13:16;;;;;;;32.17;3.22;;;;;;;4.61;100.00;99409.72;4945763;28;20038;-49
2022/01/09 04:15:45;;;;;;;30.35;3.30;;;;;;;4.63;100.00;99402.44;4963548;28;20191;-46
2022/01/09 04:18:13;;;;;;;35.38;3.28;;;;;;;4.59;100.00;99407.22;4964024;28;20018;-44
2022/01/09 04:20:38;;;;;;;40.80;3.17;;;;;;;4.52;100.00;99416.78;4963245;28;20031;-47
2022/01/09 04:23:03;;;;;;;38.53;3.80;;;;;;;4.48;100.00;99426.00;4964121;28;20025;-44
2022/01/09 04:25:28;;;;;;;35.97;3.78;;;;;;;4.40;100.00;99424.16;4963711;28;20090;-44
2022/01/09 04:27:54;;;;;;;30.17;3.45;;;;;;;4.36;100.00;99435.19;4962717;28;20022;-42
2022/01/09 04:30:19;;;;;;;37.53;4.10;;;;;;;4.33;100.00;99443.41;4963737;28;20389;-46
2022/01/09 04:32:45;;;;;;;24.73;2.92;;;;;;;4.31;100.00;99438.28;4963613;28;20022;-42
2022/01/09 04:35:12;;;;;;;37.53;3.15;;;;;;;4.29;100.00;99450.81;4963992;28;20152;-43
2022/01/09 04:37:37;;;;;;;32.83;3.42;;;;;;;4.26;100.00;99451.13;4963188;28;20085;-41
2022/01/09 04:40:05;;;;;;;30.27;3.58;;;;;;;4.27;100.00;99463.38;4962948;28;20038;-41
2022/01/09 04:43:07;;;;;;;27.63;3.20;;;;;;;4.21;100.00;99469.25;4963158;28;20356;-46
2022/01/09 04:45:25;;;;;;;28.65;2.95;;;;;;;4.14;100.00;99470.88;4960436;28;20042;-46
2022/01/09 04:47:51;;;;;;;25.63;3.53;;;;;;;4.16;100.00;99480.31;4963397;28;20015;-42
2022/01/09 04:50:28;;;;;;;21.92;2.47;;;;;;;4.12;100.00;99478.94;4962845;28;20522;-43
2022/01/09 04:53:04;;;;;;;28.17;3.13;;;;;;;4.08;100.00;99485.53;4947499;28;20100;-46
2022/01/09 04:55:32;;;;;;;29.85;3.70;;;;;;;4.06;100.00;99490.16;4945317;28;20098;-42
2022/01/09 04:57:59;;;;;;;22.83;3.10;;;;;;;4.01;100.00;99489.78;4963212;28;20535;-43
2022/01/09 05:00:25;;;;;;;28.63;3.20;;;;;;;4.05;100.00;99499.84;4963602;28;20110;-43
2022/01/09 05:02:50;;;;;;;28.38;3.78;;;;;;;4.04;100.00;99511.44;4962495;28;20166;-42
2022/01/09 05:05:16;;;;;;;29.58;3.33;;;;;;;4.01;100.00;99524.94;4946072;28;20341;-43
2022/01/09 05:07:42;;;;;;;29.85;2.50;;;;;;;3.99;100.00;99520.78;4963269;28;20729;-45
2022/01/09 05:10:09;;;;;;;27.80;3.70;;;;;;;3.93;100.00;99525.69;4962235;28;20145;-42
2022/01/09 05:12:34;;;;;;;28.70;2.65;;;;;;;3.88;100.00;99543.78;4962105;28;20031;-43
2022/01/09 05:15:00;;;;;;;21.65;2.67;;;;;;;3.87;100.00;99543.94;4963579;28;20030;-45
2022/01/09 05:17:26;;;;;;;33.88;3.25;;;;;;;3.84;100.00;99545.06;4963040;28;20030;-44
2022/01/09 05:19:52;;;;;;;27.45;3.75;;;;;;;3.89;100.00;99560.47;4963208;28;20038;-45
2022/01/09 05:22:18;;;;;;;30.58;3.88;;;;;;;3.87;100.00;99565.91;4962572;28;20035;-47
2022/01/09 05:24:44;;;;;;;25.63;3.78;;;;;;;3.86;100.00;99566.88;4961600;28;20054;-44
2022/01/09 05:27:09;;;;;;;24.30;3.17;;;;;;;3.83;100.00;99575.09;4962265;28;20051;-43
2022/01/09 05:29:34;;;;;;;25.02;3.53;;;;;;;3.86;100.00;99577.44;4961938;28;20161;-43
2022/01/09 05:32:00;;;;;;;29.25;3.17;;;;;;;3.86;100.00;99582.72;4963564;28;20398;-45
2022/01/09 05:34:25;;;;;;;23.77;2.60;;;;;;;3.85;100.00;99590.78;4963252;28;20122;-44
2022/01/09 05:36:50;;;;;;;27.60;2.65;;;;;;;3.83;100.00;99587.47;4962147;28;20085;-46
2022/01/09 05:39:16;;;;;;;31.60;4.13;;;;;;;3.82;100.00;99594.56;4962749;28;20031;-41
2022/01/09 05:41:44;;;;;;;16.85;2.70;;;;;;;3.87;100.00;99594.09;4960794;28;20022;-43
2022/01/09 05:44:09;;;;;;;21.02;2.65;;;;;;;3.90;100.00;99605.25;4961452;28;20030;-44
2022/01/09 05:46:34;;;;;;;28.70;2.92;;;;;;;3.92;100.00;99607.69;4960931;28;20018;-42
2022/01/09 05:49:00;;;;;;;26.52;2.95;;;;;;;3.91;100.00;99609.53;4963173;28;20124;-46
2022/01/09 05:51:25;;;;;;;24.42;3.28;;;;;;;3.89;100.00;99622.06;4962182;28;20014;-45
2022/01/09 05:53:50;;;;;;;24.33;2.97;;;;;;;3.92;100.00;99620.91;4962129;28;20428;-43
2022/01/09 05:56:16;;;;;;;25.52;3.35;;;;;;;3.96;100.00;99627.56;4960563;28;20481;-43
2022/01/09 05:58:41;;;;;;;23.63;3.38;;;;;;;4.01;100.00;99627.13;4961701;28;20042;-46
2022/01/09 06:01:07;;;;;;;14.95;2.58;;;;;;;3.97;100.00;99618.69;4960872;28;20077;-44
2022/01/09 06:03:32;;;;;;;24.65;3.38;;;;;;;3.92;100.00;99618.25;4962625;28;20121;-43
2022/01/09 06:05:58;;;;;;;22.48;3.30;;;;;;;3.90;100.00;99629.00;4960990;28;20206;-44
2022/01/09 06:08:24;;;;;;;24.17;2.97;;;;;;;3.94;100.00;99629.53;4962313;28;20007;-44
2022/01/09 06:10:49;;;;;;;24.65;3.30;;;;;;;3.97;100.00;99641.59;4961107;28;20134;-43
2022/01/09 06:13:15;;;;;;;20.92;3.05;;;;;;;3.91;100.00;99632.47;4961197;28;20053;-42
2022/01/09 06:15:40;;;;;;;21.63;2.60;;;;;;;3.76;100.00;99641.88;4961618;28;20039;-42
2022/01/09 06:18:06;;;;;;;23.23;3.28;;;;;;;3.64;100.00;99647.34;4962237;28;20354;-42
2022/01/09 06:20:31;;;;;;;20.92;3.28;;;;;;;3.63;100.00;99653.63;4961516;28;20031;-43
2022/01/09 06:22:56;;;;;;;17.15;2.70;;;;;;;3.63;100.00;99652.75;4961813;28;20050;-42
2022/01/09 06:25:21;;;;;;;22.20;3.03;;;;;;;3.72;100.00;99655.38;4961199;28;20528;-44
2022/01/09 06:27:47;;;;;;;27.20;4.00;;;;;;;3.76;100.00;99661.19;4960675;28;20026;-43
2022/01/09 06:30:13;;;;;;;30.02;3.60;;;;;;;3.82;100.00;99668.53;4961701;28;20023;-43
2022/01/09 06:32:38;;;;;;;20.77;3.13;;;;;;;3.86;100.00;99664.59;4961633;28;20033;-43
2022/01/09 06:35:05;;;;;;;19.08;3.30;;;;;;;3.91;100.00;99677.38;4962095;28;20027;-46
2022/01/09 06:37:31;;;;;;;29.30;3.70;;;;;;;3.92;100.00;99673.75;4976072;28;20026;-46
2022/01/09 06:39:56;;;;;;;20.35;3.10;;;;;;;3.90;100.00;99687.13;4979349;28;20026;-43
2022/01/09 06:42:21;;;;;;;21.13;3.00;;;;;;;3.84;100.00;99697.44;4979953;28;20488;-43
2022/01/09 06:44:47;;;;;;;21.85;2.95;;;;;;;3.76;100.00;99697.31;4980794;28;20046;-42
2022/01/09 06:47:12;;;;;;;15.95;2.40;;;;;;;3.46;100.00;99700.06;4981256;28;20433;-46
2022/01/09 06:49:38;;;;;;;25.38;3.78;;;;;;;3.33;100.00;99705.66;4981118;28;20037;-43
2022/01/09 06:52:03;;;;;;;21.05;3.58;;;;;;;3.24;100.00;99703.03;4963660;28;20113;-45
2022/01/09 06:54:29;;;;;;;25.60;3.45;;;;;;;3.16;100.00;99701.94;4981477;28;20066;-44
2022/01/09 06:56:55;;;;;;;29.13;4.10;;;;;;;3.15;100.00;99712.63;4979941;28;20447;-44
2022/01/09 06:59:20;;;;;;;29.48;3.53;;;;;;;3.14;100.00;99722.34;4979926;28;20381;-44
2022/01/09 07:01:45;;;;;;;30.75;3.30;;;;;;;3.13;100.00;99728.59;4980969;28;20377;-45
2022/01/09 07:04:11;;;;;;;32.83;3.70;;;;;;;3.15;100.00;99734.56;4964014;28;20096;-48
2022/01/09 07:06:36;;;;;;;25.58;3.38;;;;;;;3.23;100.00;99728.59;4981258;28;20493;-45
2022/01/09 07:09:03;;;;;;;39.67;4.05;;;;;;;3.26;100.00;99730.94;4985316;28;20110;-44
2022/01/09 07:11:28;;;;;;;25.73;3.25;;;;;;;3.23;100.00;99739.16;4984427;28;20081;-44
2022/01/09 07:13:54;;;;;;;17.35;3.15;;;;;;;3.25;100.00;99741.66;4984027;28;20042;-42
2022/01/09 07:16:20;;;;;;;26.85;3.60;;;;;;;3.24;100.00;99746.09;4985305;28;20018;-44
2022/01/09 07:18:45;;;;;;;17.95;2.92;;;;;;;3.22;100.00;99753.28;4984380;28;20482;-43
2022/01/09 07:21:11;;;;;;;26.58;2.92;;;;;;;3.23;100.00;99754.97;4967398;28;20034;-44
2022/01/09 07:23:36;;;;;;;23.90;2.67;;;;;;;3.21;100.00;99748.16;4977369;28;20042;-44
2022/01/09 07:26:01;;;;;;;27.25;3.50;;;;;;;3.24;100.00;99761.06;4965010;28;20058;-40
2022/01/09 07:28:26;;;;;;;23.35;3.40;;;;;;;3.24;100.00;99764.56;4964331;28;20381;-43
2022/01/09 07:30:52;;;;;;;27.35;4.13;;;;;;;3.26;100.00;99764.41;4964971;28;20365;-46
2022/01/09 07:33:17;;;;;;;23.75;3.05;;;;;;;3.30;100.00;99761.34;4965479;28;20038;-44
2022/01/09 07:35:42;;;;;;;24.38;4.00;;;;;;;3.33;100.00;99774.25;4965010;28;20082;-43
2022/01/09 07:38:08;;;;;;;26.58;3.70;;;;;;;3.37;100.00;99777.44;4964890;28;20027;-44
2022/01/09 07:40:34;;;;;;;30.67;3.33;;;;;;;3.32;100.00;99775.22;4963724;28;20110;-43
2022/01/09 07:42:59;;;;;;;29.27;3.55;;;;;;;3.35;100.00;99785.50;4964488;28;20386;-43
2022/01/09 07:45:27;;;;;;;20.40;2.90;;;;;;;3.34;100.00;99785.66;4964822;28;20030;-45
2022/01/09 07:47:54;;;;;;;15.98;2.85;;;;;;;3.29;100.00;99793.16;4964646;28;20022;-45
2022/01/09 07:50:20;;;;;;;28.00;3.60;;;;;;;3.25;100.00;99789.97;4964850;28;20481;-45
2022/01/09 07:52:45;;;;;;;22.95;3.67;;;;;;;3.25;100.00;99802.34;4964210;28;20027;-45
2022/01/09 07:55:11;;;;;;;32.38;4.60;;;;;;;3.24;100.00;99803.28;4963409;28;20027;-45
2022/01/09 07:57:37;;;;;;;23.38;3.40;;;;;;;3.25;100.00;99802.34;4962537;28;20093;-46
2022/01/09 08:00:08;;;;;;;31.27;3.72;;;;;;;3.20;100.00;99800.09;4964797;28;21102;-42
2022/01/09 08:02:33;;;;;;;23.48;3.35;;;;;;;3.14;100.00;99816.47;4964192;28;20065;-44
2022/01/09 08:04:59;;;;;;;24.45;3.20;;;;;;;3.08;100.00;99814.41;4964823;28;20058;-43
2022/01/09 08:07:24;;;;;;;34.15;4.03;;;;;;;3.04;100.00;99818.28;4964490;28;20129;-45
2022/01/09 08:09:49;;;;;;;20.85;2.72;;;;;;;3.02;100.00;99828.13;4963873;28;20027;-45
2022/01/09 08:12:15;;;;;;;31.60;3.33;;;;;;;2.98;100.00;99828.41;4963089;28;20462;-45
2022/01/09 08:14:41;;;;;;;25.88;3.15;;;;;;;2.93;100.00;99829.81;4963541;28;20089;-44
2022/01/09 08:17:06;;;;;;;24.00;3.42;;;;;;;2.94;100.00;99844.66;4964430;28;20381;-45
2022/01/09 08:19:32;;;;;;;26.52;3.17;;;;;;;2.96;100.00;99840.91;4964382;28;20042;-46
2022/01/09 08:21:58;;;;;;;25.08;2.97;;;;;;;2.97;100.00;99847.00;4964759;28;20097;-46
2022/01/09 08:24:24;;;;;;;23.05;3.75;;;;;;;3.03;100.00;99856.19;4963546;28;20379;-45
2022/01/09 08:26:49;;;;;;;29.40;3.33;;;;;;;3.05;100.00;99849.78;4945632;28;20117;-44
2022/01/09 08:29:15;;;;;;;32.78;4.03;;;;;;;3.08;100.00;99848.69;4964010;28;20023;-46
2022/01/09 08:31:41;;;;;;;30.40;4.63;;;;;;;3.15;100.00;99857.72;4946685;28;20077;-46
2022/01/09 08:34:06;;;;;;;26.08;3.30;;;;;;;3.19;100.00;99864.38;4964028;28;20050;-45
2022/01/09 08:36:32;;;;;;;23.80;3.00;;;;;;;3.24;100.00;99863.97;4964424;28;20138;-45
2022/01/09 08:38:57;;;;;;;26.58;3.13;;;;;;;3.27;100.00;99867.16;4965074;28;20026;-44
2022/01/09 08:41:22;;;;;;;20.80;3.60;;;;;;;3.31;100.00;99865.94;4963282;28;20046;-43
2022/01/09 08:43:47;;;;;;;23.33;3.35;;;;;;;3.36;100.00;99883.97;4963201;28;20105;-44
2022/01/09 08:46:14;;;;;;;27.13;3.75;;;;;;;3.35;100.00;99877.88;4964186;28;20363;-43
2022/01/09 08:48:39;;;;;;;20.45;3.25;;;;;;;3.28;100.00;99883.88;4964173;28;20023;-46
2022/01/09 08:51:06;;;;;;;25.98;3.30;;;;;;;3.21;100.00;99886.22;4963913;28;20436;-47
2022/01/09 08:53:32;;;;;;;17.15;3.13;;;;;;;3.14;100.00;99891.19;4963825;28;20031;-46
2022/01/09 08:55:57;;;;;;;25.52;3.53;;;;;;;3.09;100.00;99892.56;4963201;28;20504;-44
2022/01/09 08:58:22;;;;;;;26.55;2.97;;;;;;;3.06;100.00;99892.84;4963304;28;20030;-43
2022/01/09 09:00:48;;;;;;;27.35;3.53;;;;;;;3.10;100.00;99894.25;4963751;28;20623;-45
2022/01/09 09:03:13;;;;;;;26.85;3.22;;;;;;;3.21;100.00;99907.31;4963654;28;20027;-45
2022/01/09 09:05:38;;;;;;;38.97;3.72;;;;;;;3.29;100.00;99910.13;4963588;28;20035;-45
2022/01/09 09:08:04;;;;;;;21.95;3.00;;;;;;;3.33;100.00;99911.50;4964265;28;20026;-46
2022/01/09 09:10:29;;;;;;;28.85;3.53;;;;;;;3.40;100.00;99911.78;4962712;28;20022;-43
2022/01/09 09:12:54;;;;;;;22.63;3.35;;;;;;;3.44;100.00;99917.63;4962439;28;20113;-44
2022/01/09 09:15:21;;;;;;;23.52;3.60;;;;;;;3.51;100.00;99931.91;4963905;28;20027;-47
2022/01/09 09:17:47;;;;;;;27.48;3.55;;;;;;;3.53;100.00;99928.19;4963187;28;20027;-46
2022/01/09 09:20:12;;;;;;;22.48;3.38;;;;;;;3.55;100.00;99934.16;4963246;28;20110;-44
2022/01/09 09:22:38;;;;;;;30.38;3.40;;;;;;;3.55;100.00;99942.06;4963205;28;20027;-42
2022/01/09 09:25:04;;;;;;;34.85;3.03;;;;;;;3.57;100.00;99946.41;4962638;28;20042;-43
2022/01/09 09:27:30;;;;;;;26.45;3.00;;;;;;;3.54;100.00;99940.41;4962360;28;20106;-42
2022/01/09 09:30:02;;;;;;;20.02;2.63;;;;;;;3.61;100.00;99940.69;4963024;28;20080;-42
2022/01/09 09:32:27;;;;;;;25.23;3.17;;;;;;;3.67;100.00;99950.69;4963213;28;20033;-43
2022/01/09 09:34:52;;;;;;;15.45;2.72;;;;;;;3.73;100.00;99954.56;4962985;28;20355;-46
2022/01/09 09:37:18;;;;;;;20.25;2.85;;;;;;;3.81;100.00;99956.53;4967314;28;20109;-45
2022/01/09 09:39:43;;;;;;;20.30;3.17;;;;;;;3.90;100.00;99961.81;4982229;28;20033;-45
2022/01/09 09:42:08;;;;;;;24.85;3.30;;;;;;;3.98;100.00;99968.22;4980127;28;20493;-44
2022/01/09 09:44:36;;;;;;;20.88;3.30;;;;;;;4.02;100.00;99980.16;4973442;28;20038;-46
2022/01/09 09:47:04;;;;;;;26.88;2.97;;;;;;;4.02;100.00;99969.59;4982451;28;20412;-45
2022/01/09 09:49:29;;;;;;;17.20;2.83;;;;;;;4.04;100.00;99975.56;4981505;28;20037;-43
2022/01/09 09:51:54;;;;;;;36.65;4.10;;;;;;;4.05;100.00;99982.53;4975718;28;20022;-46
2022/01/09 09:54:20;;;;;;;27.58;3.58;;;;;;;4.08;100.00;99983.06;4981834;28;20030;-44
2022/01/09 09:56:45;;;;;;;20.80;3.30;;;;;;;4.10;100.00;99972.38;4979880;28;20536;-45
2022/01/09 09:59:10;;;;;;;20.33;3.05;;;;;;;4.10;100.00;99986.41;4972842;28;20048;-45
2022/01/09 10:01:36;;;;;;;23.50;3.22;;;;;;;4.11;100.00;99989.91;4971054;28;20022;-43
2022/01/09 10:04:08;;;;;;;24.23;3.33;;;;;;;4.17;100.00;99991.97;4972260;28;20019;-45
2022/01/09 10:06:33;;;;;;;;;;;;;;;4.21;100.00;99992.50;4979552;28;20019;-45
2022/01/09 10:09:05;;;;;;;25.15;3.72;;;;;;;4.24;100.00;99998.38;4953051;28;19917;-43
2022/01/09 10:11:41;;;;;;;17.45;3.17;;;;;;;4.24;100.00;100003.66;4978582;28;20046;-46
2022/01/09 10:14:11;;;;;;;28.27;3.28;;;;;;;4.15;100.00;100004.50;4976584;28;20034;-42
2022/01/09 10:16:36;;;;;;;24.48;3.15;;;;;;;4.16;100.00;100003.53;4979108;28;20041;-43
2022/01/09 10:19:02;;;;;;;17.27;2.97;;;;;;;4.17;100.00;100009.63;4981768;28;20289;-45
2022/01/09 10:21:27;;;;;;;23.25;2.95;;;;;;;4.20;100.00;100004.91;4980586;28;20022;-44
2022/01/09 10:24:04;;;;;;;20.23;2.90;;;;;;;4.28;100.00;100012.13;4980679;28;20346;-44
2022/01/09 10:26:32;;;;;;;32.10;3.78;;;;;;;4.34;100.00;100014.19;4977458;28;20050;-44
2022/01/09 10:28:57;;;;;;;34.17;3.45;;;;;;;4.36;100.00;100019.34;4980082;28;20125;-45
2022/01/09 10:31:24;;;;;;;24.85;3.85;;;;;;;4.36;100.00;100024.63;4980324;28;20440;-45
2022/01/09 10:34:03;;;;;;;19.80;3.15;;;;;;;4.29;100.00;100022.56;4980344;28;20049;-41
2022/01/09 10:36:33;;;;;;;24.80;3.08;;;;;;;4.28;100.00;100028.00;4978064;28;20029;-45
2022/01/09 10:39:04;;;;;;;25.08;3.42;;;;;;;4.22;100.00;100032.00;4977266;28;20027;-46
2022/01/09 10:41:44;;;;;;;29.10;4.03;;;;;;;4.19;100.00;100023.53;4978899;28;20054;-47
2022/01/09 10:44:15;;;;;;;22.77;3.30;;;;;;;4.17;100.00;100023.66;4982397;28;20381;-45
2022/01/09 10:46:40;;;;;;;26.52;3.80;;;;;;;4.22;100.00;100018.78;4981661;28;20042;-47
2022/01/09 10:49:06;;;;;;;15.30;2.50;;;;;;;4.36;100.00;100027.28;4985290;28;20033;-48
2022/01/09 10:51:31;;;;;;;27.95;3.13;;;;;;;4.48;100.00;100034.94;4985191;28;20030;-47
2022/01/09 10:53:58;;;;;;;24.70;3.55;;;;;;;4.49;100.00;100031.28;4980536;28;20557;-44
2022/01/09 10:56:25;;;;;;;23.77;3.90;;;;;;;4.59;100.00;100035.75;4964848;28;20121;-44
2022/01/09 10:58:58;;;;;;;22.33;3.33;;;;;;;4.65;100.00;100040.44;4964297;28;20497;-44
2022/01/09 11:01:27;;;;;;;27.88;3.35;;;;;;;4.77;100.00;100036.69;4964270;28;20046;-43
2022/01/09 11:03:55;;;;;;;28.17;4.13;;;;;;;4.93;100.00;100029.94;4949877;28;20504;-47
2022/01/09 11:06:24;;;;;;;24.17;3.63;;;;;;;5.02;100.00;100037.00;4979305;28;20037;-48
2022/01/09 11:08:52;;;;;;;30.67;4.65;;;;;;;5.09;100.00;100039.91;4984683;28;20094;-45
2022/01/09 11:11:39;;;;;;;33.53;4.72;;;;;;;5.16;100.00;100038.31;4983969;28;20568;-45
2022/01/09 11:14:11;;;;;;;33.15;5.07;;;;;;;5.30;100.00;100040.50;4984452;28;20057;-45
2022/01/09 11:16:41;;;;;;;31.20;5.13;;;;;;;5.46;100.00;100039.84;4983437;28;20089;-49
2022/01/09 11:19:11;;;;;;;22.17;4.38;;;;;;;5.70;100.00;100041.13;4985097;28;20026;-47
2022/01/09 11:21:43;;;;;;;26.40;3.13;;;;;;;5.81;100.00;100045.38;4983426;28;20489;-45